Time;durP1;ratioP1;P1;durP2;ratioP2;P2;SDS_P1;SDS_P2;PMS_P1;PMS_P2;Temp;Humidity;BMP_temperature;BMP_pressure;BME280_temperature;BME280_humidity;BME280_pressure;Samples;Min_cycle;Max_cycle;Signal;HPM_P1;HPM_P2
2022/10/07 00:01:31;;;;;;;10.10;6.72;;;;;;;12.08;100.00;99499.38;5051986;28;20032;-52
2022/10/07 00:03:57;;;;;;;9.25;6.30;;;;;;;11.89;100.00;99471.47;5052052;28;20479;-53
2022/10/07 00:06:25;;;;;;;11.35;6.80;;;;;;;12.05;100.00;99500.31;5068622;28;20546;-50
2022/10/07 00:08:52;;;;;;;13.98;6.63;;;;;;;12.02;100.00;99505.69;5085677;28;20048;-54
2022/10/07 00:11:21;;;;;;;10.38;5.18;;;;;;;11.99;100.00;99497.97;5070359;28;20039;-50
2022/10/07 00:13:51;;;;;;;10.63;6.53;;;;;;;12.00;100.00;99506.66;5068523;28;20043;-55
2022/10/07 00:16:25;;;;;;;8.43;6.18;;;;;;;11.99;100.00;99504.94;5081872;28;20050;-55
2022/10/07 00:18:53;;;;;;;10.13;6.25;;;;;;;12.00;100.00;99506.66;5082060;28;20032;-54
2022/10/07 00:21:19;;;;;;;9.85;6.50;;;;;;;12.09;100.00;99514.09;5080308;28;20471;-55
2022/10/07 00:23:46;;;;;;;10.70;6.32;;;;;;;12.10;100.00;99521.81;5072468;28;20039;-49
2022/10/07 00:26:15;;;;;;;8.55;5.90;;;;;;;12.11;100.00;99520.91;5035556;28;20380;-54
2022/10/07 00:28:41;;;;;;;10.13;6.03;;;;;;;12.07;100.00;99521.97;5097018;28;20044;-51
2022/10/07 00:31:13;;;;;;;10.82;5.75;;;;;;;12.01;100.00;99532.63;5068522;28;20340;-49
2022/10/07 00:33:40;;;;;;;9.57;5.70;;;;;;;11.97;100.00;99525.88;5077572;28;20139;-51
2022/10/07 00:36:08;;;;;;;9.60;6.32;;;;;;;11.69;100.00;99491.44;5075541;28;20529;-54
2022/10/07 00:38:34;;;;;;;8.00;6.03;;;;;;;11.83;100.00;99518.63;5068764;28;20089;-49
2022/10/07 00:41:00;;;;;;;8.02;5.22;;;;;;;11.72;100.00;99522.56;5068488;28;20051;-53
2022/10/07 00:43:28;;;;;;;9.55;6.00;;;;;;;11.50;100.00;99491.38;5074430;28;20040;-52
2022/10/07 00:46:10;;;;;;;6.90;5.25;;;;;;;11.48;100.00;99503.59;5052250;28;20036;-53
2022/10/07 00:48:39;;;;;;;7.80;5.32;;;;;;;11.60;100.00;99531.75;5050995;28;20032;-49
2022/10/07 00:51:06;;;;;;;8.20;5.55;;;;;;;11.56;100.00;99543.19;5072108;28;20519;-48
2022/10/07 00:53:33;;;;;;;9.82;5.15;;;;;;;11.37;100.00;99517.03;5081762;28;20047;-51
2022/10/07 00:56:03;;;;;;;8.65;5.88;;;;;;;11.32;100.00;99510.31;5068576;28;20040;-51
2022/10/07 00:58:35;;;;;;;9.32;5.32;;;;;;;11.30;100.00;99513.00;5068101;28;20089;-52
2022/10/07 01:01:01;;;;;;;8.10;4.93;;;;;;;11.23;100.00;99502.88;5073156;28;20044;-56
2022/10/07 01:03:28;;;;;;;8.23;4.78;;;;;;;11.44;100.00;99549.72;5073736;28;20040;-55
2022/10/07 01:05:54;;;;;;;8.73;5.40;;;;;;;11.43;100.00;99555.00;5070562;28;20041;-51
2022/10/07 01:08:21;;;;;;;10.95;5.30;;;;;;;11.37;100.00;99557.84;5068332;28;20047;-53
2022/10/07 01:11:12;;;;;;;7.75;5.22;;;;;;;11.36;100.00;99564.78;5050695;28;20526;-52
2022/10/07 01:13:55;;;;;;;9.30;5.40;;;;;;;11.31;100.00;99560.66;5068696;28;20093;-53
2022/10/07 01:16:48;;;;;;;7.55;5.45;;;;;;;11.26;100.00;99560.84;5051594;28;20132;-52
2022/10/07 01:19:30;;;;;;;9.13;4.53;;;;;;;11.22;100.00;99559.28;5051390;28;20040;-52
2022/10/07 01:22:21;;;;;;;7.05;4.50;;;;;;;11.20;100.00;99565.47;5058079;28;20419;-50
2022/10/07 01:25:22;;;;;;;8.95;5.50;;;;;;;11.15;100.00;99557.00;5068103;28;20040;-52
2022/10/07 01:27:55;;;;;;;9.52;5.00;;;;;;;11.10;100.00;99564.09;5067465;28;20036;-51
2022/10/07 01:30:21;;;;;;;6.22;4.80;;;;;;;11.10;100.00;99570.16;5051268;28;20076;-50
2022/10/07 01:32:58;;;;;;;8.35;4.80;;;;;;;11.09;100.00;99572.84;5072674;28;20064;-52
2022/10/07 01:35:27;;;;;;;7.03;4.20;;;;;;;11.04;100.00;99570.41;5034360;28;20084;-52
2022/10/07 01:37:55;;;;;;;7.60;4.35;;;;;;;11.09;100.00;99576.28;5080391;28;20094;-53
2022/10/07 01:40:24;;;;;;;8.85;5.10;;;;;;;11.07;100.00;99577.25;5051460;28;20036;-51
2022/10/07 01:42:53;;;;;;;8.23;5.00;;;;;;;11.05;100.00;99582.50;5057762;28;20040;-54
2022/10/07 01:45:21;;;;;;;11.00;4.97;;;;;;;10.84;100.00;99558.13;5084709;28;20059;-54
2022/10/07 01:47:48;;;;;;;7.15;5.30;;;;;;;10.98;100.00;99592.31;5067924;28;20033;-52
2022/10/07 01:50:14;;;;;;;7.82;5.30;;;;;;;11.02;100.00;99583.47;5063241;28;20041;-54
2022/10/07 01:53:02;;;;;;;6.72;4.93;;;;;;;11.15;100.00;99586.44;5082847;28;20204;-49
2022/10/07 01:55:41;;;;;;;7.03;4.82;;;;;;;10.88;100.00;99556.28;5051524;28;20036;-54
2022/10/07 01:58:11;;;;;;;6.07;4.50;;;;;;;11.09;100.00;99596.25;5050513;28;20401;-53
2022/10/07 02:00:39;;;;;;;;;;;;;;;11.06;100.00;99597.22;5068387;28;20036;-53
2022/10/07 02:03:42;;;;;;;8.15;5.13;;;;;;;11.01;100.00;99594.78;5070992;28;19916;-51
2022/10/07 02:06:18;;;;;;;10.98;5.30;;;;;;;10.99;100.00;99608.78;5063536;28;20117;-51
2022/10/07 02:08:53;;;;;;;6.18;5.07;;;;;;;10.95;100.00;99614.97;5084935;28;20044;-51
2022/10/07 02:11:22;;;;;;;7.63;5.18;;;;;;;10.91;100.00;99613.38;5070479;28;20064;-55
2022/10/07 02:14:08;;;;;;;6.97;5.28;;;;;;;10.95;100.00;99621.00;5071256;28;20044;-54
2022/10/07 02:16:41;;;;;;;9.48;5.50;;;;;;;10.93;100.00;99622.00;5069597;28;20083;-54
2022/10/07 02:19:22;;;;;;;8.18;4.50;;;;;;;10.97;100.00;99626.16;5072383;28;20047;-54
2022/10/07 02:21:52;;;;;;;8.30;5.28;;;;;;;10.97;100.00;99613.16;5076836;28;20048;-54
2022/10/07 02:24:20;;;;;;;8.47;4.80;;;;;;;10.95;100.00;99620.16;5049461;28;20166;-52
2022/10/07 02:26:48;;;;;;;8.60;5.18;;;;;;;10.91;100.00;99622.03;5035700;28;20416;-55
2022/10/07 02:29:17;;;;;;;8.77;5.65;;;;;;;10.89;100.00;99630.78;5055409;28;20029;-49
2022/10/07 02:31:47;;;;;;;5.85;4.13;;;;;;;10.89;100.00;99625.59;5070777;28;20075;-50
2022/10/07 02:34:16;;;;;;;8.35;4.68;;;;;;;10.88;100.00;99626.53;5069327;28;20401;-52
2022/10/07 02:37:00;;;;;;;11.38;4.95;;;;;;;10.89;100.00;99633.38;5074395;28;20154;-53
2022/10/07 02:39:28;;;;;;;7.88;4.65;;;;;;;10.92;100.00;99633.28;5064957;28;20033;-54
2022/10/07 02:41:58;;;;;;;10.85;5.07;;;;;;;10.80;100.00;99605.13;5068526;28;20459;-50
2022/10/07 02:44:25;;;;;;;7.85;4.38;;;;;;;10.96;100.00;99624.47;5069489;28;20388;-50
2022/10/07 02:47:08;;;;;;;7.60;4.30;;;;;;;10.79;100.00;99606.03;5088492;28;20064;-50
2022/10/07 02:49:36;;;;;;;11.00;5.00;;;;;;;10.93;100.00;99635.84;5068673;28;20047;-55
2022/10/07 02:52:09;;;;;;;8.67;4.90;;;;;;;10.95;100.00;99638.38;5059099;28;20044;-56
2022/10/07 02:55:13;;;;;;;8.15;4.82;;;;;;;10.96;100.00;99634.88;5057525;28;20089;-53
2022/10/07 02:57:44;;;;;;;7.07;5.10;;;;;;;10.98;100.00;99641.72;5069530;28;20052;-53
2022/10/07 03:00:13;;;;;;;7.80;4.45;;;;;;;11.00;100.00;99644.25;5054972;28;20564;-52
2022/10/07 03:02:56;;;;;;;9.35;4.78;;;;;;;11.06;100.00;99641.44;5052780;28;20462;-50
2022/10/07 03:05:28;;;;;;;6.95;4.07;;;;;;;10.89;100.00;99608.22;5050855;28;20475;-51
2022/10/07 03:08:01;;;;;;;9.05;4.40;;;;;;;11.10;100.00;99639.56;5077727;28;20074;-52
2022/10/07 03:10:27;;;;;;;8.82;4.13;;;;;;;11.09;100.00;99643.94;5090531;28;20040;-53
2022/10/07 03:12:55;;;;;;;5.85;4.28;;;;;;;11.05;100.00;99639.72;5081284;28;20040;-57
2022/10/07 03:15:22;;;;;;;6.22;4.03;;;;;;;10.84;100.00;99617.97;5068612;28;20439;-51
2022/10/07 03:17:48;;;;;;;5.93;3.75;;;;;;;11.08;100.00;99654.41;5081680;28;20060;-49
2022/10/07 03:20:14;;;;;;;7.43;3.88;;;;;;;11.16;100.00;99658.41;5090241;28;20420;-52
2022/10/07 03:22:44;;;;;;;5.22;3.58;;;;;;;11.01;100.00;99618.19;5060722;28;20511;-51
2022/10/07 03:25:13;;;;;;;7.47;3.80;;;;;;;11.31;100.00;99672.59;5066532;28;20045;-53
2022/10/07 03:27:44;;;;;;;7.50;3.80;;;;;;;11.16;100.00;99629.78;5061188;28;20119;-53
2022/10/07 03:30:11;;;;;;;6.70;4.07;;;;;;;11.46;100.00;99669.44;5052035;28;20044;-52
2022/10/07 03:32:39;;;;;;;5.25;3.35;;;;;;;11.53;100.00;99676.09;5019929;28;20044;-51
2022/10/07 03:35:06;;;;;;;4.82;3.00;;;;;;;11.48;99.82;99668.44;5068217;28;20059;-53
2022/10/07 03:37:32;;;;;;;5.93;3.55;;;;;;;11.51;99.45;99677.91;5023431;28;21808;-51
2022/10/07 03:39:59;;;;;;;6.75;3.90;;;;;;;11.57;99.17;99682.00;5069019;28;20062;-50
2022/10/07 03:42:26;;;;;;;6.07;3.47;;;;;;;11.37;98.80;99646.34;5064809;28;20571;-51
2022/10/07 03:44:52;;;;;;;6.40;3.97;;;;;;;11.54;98.39;99667.38;5065413;28;20048;-52
2022/10/07 03:47:20;;;;;;;8.32;4.30;;;;;;;11.50;98.42;99676.22;5063056;28;20059;-54
2022/10/07 03:49:46;;;;;;;7.03;4.22;;;;;;;11.56;98.62;99662.13;5052837;28;20209;-54
2022/10/07 03:52:12;;;;;;;5.60;3.50;;;;;;;11.38;98.58;99637.63;5040987;28;20498;-52
2022/10/07 03:54:38;;;;;;;5.15;3.70;;;;;;;11.26;97.82;99645.88;5056510;28;20040;-52
2022/10/07 03:57:48;;;;;;;5.68;3.70;;;;;;;11.31;97.93;99673.44;5068195;28;20166;-51
2022/10/07 03:59:52;;;;;;;9.30;3.75;;;;;;;11.03;98.04;99649.38;5077358;28;20079;-50
2022/10/07 04:02:22;;;;;;;5.80;3.55;;;;;;;11.14;98.66;99677.59;5067867;28;20533;-51
2022/10/07 04:04:52;;;;;;;9.07;3.83;;;;;;;11.09;99.09;99674.31;5063323;28;20040;-50
2022/10/07 04:07:21;;;;;;;6.05;3.70;;;;;;;11.06;99.03;99685.66;5072566;28;20127;-55
2022/10/07 04:09:48;;;;;;;8.68;3.63;;;;;;;11.02;99.15;99689.28;5052468;28;20048;-56
2022/10/07 04:12:14;;;;;;;5.88;2.80;;;;;;;11.02;99.61;99691.88;5072769;28;20048;-50
2022/10/07 04:14:42;;;;;;;9.40;3.00;;;;;;;10.98;98.57;99693.75;5052325;28;20562;-54
2022/10/07 04:17:08;;;;;;;7.40;3.35;;;;;;;10.93;98.72;99695.69;5073367;28;20043;-53
2022/10/07 04:19:34;;;;;;;5.65;2.92;;;;;;;10.76;98.41;99676.34;5055423;28;20036;-53
2022/10/07 04:22:01;;;;;;;6.60;2.75;;;;;;;10.91;98.16;99704.41;5072033;28;20047;-53
2022/10/07 04:24:31;;;;;;;5.95;3.25;;;;;;;10.70;97.91;99677.41;5051769;28;20401;-53
2022/10/07 04:26:57;;;;;;;8.43;3.08;;;;;;;10.92;97.61;99727.78;5054985;28;20067;-52
2022/10/07 04:29:23;;;;;;;7.57;3.00;;;;;;;10.93;97.67;99715.63;5088756;28;20149;-52
2022/10/07 04:31:48;;;;;;;6.82;3.20;;;;;;;10.88;96.82;99715.81;5070927;28;20046;-54
2022/10/07 04:34:14;;;;;;;6.22;3.00;;;;;;;10.93;96.40;99732.09;5064237;28;20067;-56
2022/10/07 04:36:41;;;;;;;4.82;3.05;;;;;;;10.94;96.32;99728.56;5069047;28;20087;-51
2022/10/07 04:39:10;;;;;;;6.20;2.90;;;;;;;10.92;95.77;99716.53;5071672;28;20039;-55
2022/10/07 04:41:42;;;;;;;5.97;2.63;;;;;;;10.97;95.71;99725.88;5088661;28;20122;-55
2022/10/07 04:44:13;;;;;;;4.43;2.45;;;;;;;10.88;95.04;99701.94;5050937;28;20052;-52
2022/10/07 04:46:48;;;;;;;3.08;2.00;;;;;;;11.05;94.18;99730.78;5054287;28;20119;-54
2022/10/07 04:49:15;;;;;;;5.30;2.00;;;;;;;11.23;92.95;99737.09;5057884;28;20032;-54
2022/10/07 04:51:42;;;;;;;7.80;3.08;;;;;;;11.45;92.29;99736.28;5067382;28;20037;-52
2022/10/07 04:54:08;;;;;;;4.18;2.17;;;;;;;11.68;90.77;99734.53;5071712;28;20036;-55
2022/10/07 04:56:43;;;;;;;3.05;2.08;;;;;;;11.85;89.42;99748.66;5068645;28;20044;-57
2022/10/07 04:59:12;;;;;;;9.05;2.92;;;;;;;12.02;88.31;99734.13;5072705;28;20041;-55
2022/10/07 05:01:39;;;;;;;3.78;2.00;;;;;;;12.00;86.82;99738.53;5067329;28;20032;-56
2022/10/07 05:04:05;;;;;;;4.25;2.10;;;;;;;12.01;85.87;99748.91;5068982;28;20047;-54
2022/10/07 05:06:32;;;;;;;6.25;1.90;;;;;;;12.12;85.89;99751.09;5067279;28;20036;-55
2022/10/07 05:08:58;;;;;;;7.65;2.90;;;;;;;12.14;85.24;99757.94;5086997;28;20036;-52
2022/10/07 05:11:25;;;;;;;8.98;2.45;;;;;;;12.10;84.43;99752.91;5071250;28;20047;-53
2022/10/07 05:13:58;;;;;;;3.35;2.58;;;;;;;12.20;84.26;99782.91;5053844;28;20089;-55
2022/10/07 05:16:27;;;;;;;4.85;2.95;;;;;;;12.22;83.83;99766.31;5050939;28;20419;-51
2022/10/07 05:18:52;;;;;;;6.57;2.70;;;;;;;12.06;83.56;99741.75;5057226;28;20465;-53
2022/10/07 05:21:18;;;;;;;8.20;2.78;;;;;;;12.30;83.11;99774.66;5047817;28;20048;-51
2022/10/07 05:23:48;;;;;;;6.78;3.22;;;;;;;11.90;82.96;99717.22;5051163;28;20363;-52
2022/10/07 05:26:19;;;;;;;2.80;2.20;;;;;;;12.28;82.77;99773.03;5067757;28;20503;-52
2022/10/07 05:28:50;;;;;;;6.35;2.58;;;;;;;12.33;82.51;99776.31;5068961;28;20040;-52
2022/10/07 05:31:24;;;;;;;5.65;2.30;;;;;;;12.32;82.25;99780.69;5051008;28;20047;-50
2022/10/07 05:33:55;;;;;;;2.30;1.42;;;;;;;12.29;82.19;99785.16;5062076;28;20517;-54
2022/10/07 05:36:23;;;;;;;4.60;2.47;;;;;;;12.28;81.75;99784.31;5051356;28;20109;-51
2022/10/07 05:38:56;;;;;;;4.72;2.55;;;;;;;11.94;81.81;99757.00;5078174;28;20052;-53
2022/10/07 05:41:25;;;;;;;3.83;2.30;;;;;;;11.93;82.70;99760.56;5070934;28;20043;-51
2022/10/07 05:43:51;;;;;;;4.88;2.22;;;;;;;13.20;80.31;99798.78;5073026;28;20039;-52
2022/10/07 05:46:22;;;;;;;5.80;2.20;;;;;;;14.11;76.32;99807.75;5070917;28;20037;-56
2022/10/07 05:48:53;;;;;;;6.60;2.25;;;;;;;13.87;74.63;99773.97;5060678;28;20547;-53
2022/10/07 05:51:23;;;;;;;6.32;2.45;;;;;;;14.38;73.45;99806.47;5071830;28;20044;-56
2022/10/07 05:53:53;;;;;;;4.45;2.15;;;;;;;14.91;71.30;99816.09;5071620;28;20036;-55
2022/10/07 05:56:22;;;;;;;5.80;2.35;;;;;;;15.17;68.55;99785.03;5070380;28;20039;-55
2022/10/07 05:58:51;;;;;;;6.68;2.42;;;;;;;15.80;67.25;99798.34;5087657;28;20069;-55
2022/10/07 06:01:19;;;;;;;6.32;2.10;;;;;;;15.68;66.33;99817.34;5058197;28;20158;-54
2022/10/07 06:03:53;;;;;;;4.97;2.25;;;;;;;16.63;65.19;99813.00;5075626;28;20040;-54
2022/10/07 06:06:23;;;;;;;5.43;2.10;;;;;;;16.27;63.36;99764.25;5058086;28;20047;-49
2022/10/07 06:08:51;;;;;;;5.57;3.20;;;;;;;16.58;62.82;99815.00;5061462;28;20526;-54
2022/10/07 06:14:03;;;;;;;5.05;1.95;;;;;;;17.65;60.04;99836.69;5073015;28;20032;-53
2022/10/07 06:16:29;;;;;;;6.97;2.17;;;;;;;17.19;59.95;99833.31;5037139;28;20428;-53
2022/10/07 06:18:56;;;;;;;5.75;1.92;;;;;;;16.25;60.90;99801.97;5069730;28;20070;-56
2022/10/07 06:21:26;;;;;;;6.18;2.10;;;;;;;16.04;62.59;99840.72;5070950;28;20051;-52
2022/10/07 06:23:55;;;;;;;6.78;2.40;;;;;;;15.98;62.77;99839.28;5055418;28;20427;-53
2022/10/07 06:26:25;;;;;;;7.47;1.80;;;;;;;15.62;62.98;99851.72;5053203;28;20040;-53
2022/10/07 06:28:52;;;;;;;5.18;1.58;;;;;;;15.33;63.57;99853.22;5070992;28;20053;-55
2022/10/07 06:31:22;;;;;;;5.28;1.50;;;;;;;14.76;65.03;99857.78;5069881;28;20044;-50
2022/10/07 06:33:49;;;;;;;6.75;1.80;;;;;;;14.59;65.46;99864.78;5050052;28;20068;-52
2022/10/07 06:36:16;;;;;;;3.45;1.40;;;;;;;14.48;65.89;99859.19;5067936;28;20036;-50
2022/10/07 06:38:45;;;;;;;3.70;1.50;;;;;;;14.83;65.66;99864.44;5069376;28;20071;-48
2022/10/07 06:41:11;;;;;;;5.80;1.73;;;;;;;14.91;64.82;99830.03;5083616;28;20044;-50
2022/10/07 06:43:37;;;;;;;4.38;1.90;;;;;;;15.11;63.85;99874.41;5068661;28;20051;-49
2022/10/07 06:46:14;;;;;;;4.88;1.40;;;;;;;15.07;63.70;99877.25;5069681;28;20037;-49
2022/10/07 06:48:44;;;;;;;5.25;1.52;;;;;;;14.76;64.11;99812.44;5051107;28;20051;-51
2022/10/07 06:51:14;;;;;;;6.32;1.85;;;;;;;15.88;62.65;99880.03;5086338;28;20064;-54
2022/10/07 06:53:40;;;;;;;2.35;1.27;;;;;;;16.78;59.89;99881.22;5069826;28;20097;-48
2022/10/07 06:56:07;;;;;;;4.90;1.23;;;;;;;16.30;59.66;99873.41;5069045;28;20044;-53
2022/10/07 06:58:34;;;;;;;4.18;1.60;;;;;;;16.25;59.82;99881.53;5068840;28;20040;-49
2022/10/07 07:01:03;;;;;;;3.80;1.30;;;;;;;16.45;59.47;99909.31;5086385;28;20044;-54
2022/10/07 07:03:29;;;;;;;7.30;1.52;;;;;;;16.67;59.00;99903.75;5084611;28;20807;-55
2022/10/07 07:05:59;;;;;;;4.60;1.42;;;;;;;16.54;58.28;99903.53;5067466;28;20040;-53
2022/10/07 07:08:31;;;;;;;5.68;1.35;;;;;;;16.29;59.19;99916.31;5067258;28;20044;-53
2022/10/07 07:11:34;;;;;;;8.52;1.75;;;;;;;15.62;59.70;99915.47;5069226;28;20052;-51
2022/10/07 07:13:55;;;;;;;4.57;1.55;;;;;;;15.41;60.15;99920.94;5098767;28;20119;-53
2022/10/07 07:16:23;;;;;;;2.17;1.10;;;;;;;15.00;60.56;99900.25;5068191;28;20040;-53
2022/10/07 07:18:53;;;;;;;3.97;1.20;;;;;;;14.92;61.06;99925.94;5036076;28;20504;-54
2022/10/07 07:21:21;;;;;;;7.00;1.30;;;;;;;14.58;61.55;99931.94;5068892;28;20090;-54
2022/10/07 07:23:47;;;;;;;2.65;1.15;;;;;;;14.41;62.35;99930.13;5065591;28;20176;-57
2022/10/07 07:26:13;;;;;;;3.92;1.38;;;;;;;14.55;62.40;99924.22;5067225;28;20044;-55
2022/10/07 07:28:40;;;;;;;3.25;1.38;;;;;;;14.38;62.11;99893.66;5051406;28;20423;-50
2022/10/07 07:31:12;;;;;;;5.15;1.33;;;;;;;14.44;62.66;99928.28;5051498;28;20094;-56
2022/10/07 07:33:39;;;;;;;6.40;1.40;;;;;;;14.54;62.83;99930.41;5048437;28;20048;-56
2022/10/07 07:36:30;;;;;;;6.68;1.60;;;;;;;14.38;62.92;99929.41;5032927;28;20047;-52
2022/10/07 07:38:59;;;;;;;5.38;1.30;;;;;;;14.41;62.98;99937.97;5051010;28;20043;-49
2022/10/07 07:41:28;;;;;;;5.60;1.20;;;;;;;14.28;63.45;99936.81;5068459;28;20043;-52
2022/10/07 07:43:56;;;;;;;5.60;1.48;;;;;;;14.26;63.91;99929.94;5051966;28;20036;-51
2022/10/07 07:46:25;;;;;;;5.40;1.70;;;;;;;15.23;62.56;99935.78;5051741;28;20049;-57
2022/10/07 07:48:53;;;;;;;4.22;1.30;;;;;;;16.22;59.25;99925.47;5068597;28;20900;-51
2022/10/07 07:51:19;;;;;;;4.40;1.10;;;;;;;16.58;57.44;99918.22;5085789;28;20047;-54
2022/10/07 07:53:46;;;;;;;6.82;1.70;;;;;;;16.97;57.44;99920.41;5067980;28;20392;-53
2022/10/07 07:56:12;;;;;;;7.03;1.63;;;;;;;17.44;55.42;99927.34;5085394;28;20044;-51
2022/10/07 07:58:39;;;;;;;4.65;1.52;;;;;;;17.78;54.67;99899.00;5068033;28;20138;-55
2022/10/07 08:01:08;;;;;;;6.80;1.40;;;;;;;18.64;52.20;99915.56;5050206;28;20052;-55
2022/10/07 08:03:36;;;;;;;4.78;1.02;;;;;;;19.55;49.88;99908.75;5034332;28;20036;-53
2022/10/07 08:06:04;;;;;;;6.95;1.70;;;;;;;19.84;49.49;99936.59;5082028;28;20408;-52
2022/10/07 08:08:30;;;;;;;10.25;1.45;;;;;;;20.25;48.03;99941.69;5068599;28;20045;-51
2022/10/07 08:11:04;;;;;;;5.15;1.48;;;;;;;20.59;46.81;99929.59;5068714;28;20496;-48
2022/10/07 08:13:31;;;;;;;5.57;1.55;;;;;;;20.65;47.05;99931.81;5069213;28;20111;-52
2022/10/07 08:15:58;;;;;;;3.10;1.30;;;;;;;20.51;46.57;99943.38;5068489;28;20045;-53
2022/10/07 08:18:24;;;;;;;6.07;1.27;;;;;;;19.17;47.89;99914.75;5067385;28;20048;-50
2022/10/07 08:20:57;;;;;;;4.13;1.50;;;;;;;18.84;48.66;99946.75;5067174;28;20419;-50
2022/10/07 08:23:25;;;;;;;3.30;1.10;;;;;;;18.56;49.51;99947.69;5050516;28;20044;-51
2022/10/07 08:25:54;;;;;;;7.80;1.50;;;;;;;18.19;50.35;99958.78;5065773;28;20673;-53
2022/10/07 08:28:20;;;;;;;3.60;1.35;;;;;;;17.48;51.58;99952.53;5067459;28;20036;-55
2022/10/07 08:30:46;;;;;;;10.95;1.98;;;;;;;17.21;52.44;99955.81;5049749;28;20049;-54
2022/10/07 08:33:12;;;;;;;4.03;1.23;;;;;;;16.80;53.18;99952.88;5050032;28;20665;-56
2022/10/07 08:35:38;;;;;;;7.72;1.65;;;;;;;16.43;54.20;99954.00;5067449;28;20131;-57
2022/10/07 08:38:06;;;;;;;4.10;1.35;;;;;;;16.04;55.13;99954.38;5067455;28;20067;-55
2022/10/07 08:40:32;;;;;;;8.60;1.70;;;;;;;16.12;55.56;99950.50;5067401;28;20040;-55
2022/10/07 08:42:58;;;;;;;6.85;1.40;;;;;;;15.95;55.40;99940.88;5066830;28;20101;-54
2022/10/07 08:45:30;;;;;;;7.22;1.50;;;;;;;15.84;55.98;99965.03;5068666;28;20044;-55
2022/10/07 08:48:00;;;;;;;8.07;1.52;;;;;;;15.72;56.21;99907.13;5067097;28;20067;-54
2022/10/07 08:50:36;;;;;;;4.05;1.25;;;;;;;16.31;54.96;99956.44;5067703;28;20044;-54
2022/10/07 08:53:05;;;;;;;4.07;0.98;;;;;;;16.25;54.56;99951.53;5068544;28;20040;-56
2022/10/07 08:56:00;;;;;;;4.35;0.90;;;;;;;16.21;54.48;99966.59;5066943;28;20155;-55
2022/10/07 08:58:34;;;;;;;10.50;1.52;;;;;;;16.53;53.56;99975.38;5080432;28;20101;-53
2022/10/07 09:01:16;;;;;;;4.80;1.10;;;;;;;18.44;50.62;99971.25;5050596;28;20052;-56
2022/10/07 09:04:05;;;;;;;3.13;0.90;;;;;;;20.92;44.13;99974.75;5067452;28;20068;-54
2022/10/07 09:06:38;;;;;;;4.60;1.05;;;;;;;20.73;44.02;99977.00;5044717;28;20049;-56
2022/10/07 09:09:13;;;;;;;7.63;1.38;;;;;;;22.11;42.16;99974.63;5068265;28;20105;-55
2022/10/07 09:11:42;;;;;;;3.40;0.90;;;;;;;22.80;40.02;99947.06;5063388;28;20501;-53
2022/10/07 09:14:17;;;;;;;3.60;1.17;;;;;;;20.77;42.97;99967.09;5062213;28;20037;-54
2022/10/07 09:16:45;;;;;;;4.00;1.17;;;;;;;19.40;44.91;99976.50;5082922;28;20145;-56
2022/10/07 09:19:25;;;;;;;5.88;1.30;;;;;;;18.40;47.39;99977.66;5068210;28;20044;-52
2022/10/07 09:21:51;;;;;;;3.20;1.10;;;;;;;17.98;48.32;99976.72;5066794;28;20594;-55
2022/10/07 09:24:22;;;;;;;8.57;1.80;;;;;;;17.38;49.88;99976.69;5048375;28;20144;-53
2022/10/07 09:26:48;;;;;;;5.05;1.10;;;;;;;16.86;50.44;99978.78;5065864;28;20419;-54
2022/10/07 09:29:16;;;;;;;4.18;1.30;;;;;;;16.26;51.59;99948.84;5063013;28;20044;-53
2022/10/07 09:31:42;;;;;;;4.75;1.13;;;;;;;16.43;51.81;99971.56;5066622;28;20036;-56
2022/10/07 09:34:19;;;;;;;6.07;1.00;;;;;;;16.46;52.50;99968.75;5068308;28;20484;-52
2022/10/07 09:37:18;;;;;;;2.80;1.00;;;;;;;16.48;52.26;99977.41;5066246;28;20044;-55
2022/10/07 09:39:44;;;;;;;;;;;;;;;16.10;53.22;99975.03;5050457;28;20044;-56
2022/10/07 09:42:48;;;;;;;4.50;1.17;;;;;;;16.32;53.31;99969.50;5065681;28;19964;-56
2022/10/07 09:45:21;;;;;;;2.00;0.90;;;;;;;18.07;49.28;99975.28;5066451;28;20419;-54
2022/10/07 09:47:51;;;;;;;5.30;1.38;;;;;;;18.89;48.09;99971.03;5066715;28;20040;-54
2022/10/07 09:50:32;;;;;;;6.13;1.48;;;;;;;19.51;46.08;99967.91;5065763;28;20101;-54
2022/10/07 09:53:01;;;;;;;8.75;1.38;;;;;;;19.78;45.74;99972.16;5054274;28;20504;-55
2022/10/07 09:55:46;;;;;;;4.30;1.15;;;;;;;19.21;45.99;99973.41;5078080;28;20049;-56
2022/10/07 09:58:29;;;;;;;4.78;0.93;;;;;;;18.55;46.93;99974.09;5082134;28;20462;-53
2022/10/07 10:00:59;;;;;;;7.50;0.90;;;;;;;17.51;48.81;99962.84;5055998;28;20047;-53
2022/10/07 10:03:36;;;;;;;5.25;1.00;;;;;;;17.74;48.90;99968.47;5068639;28;20127;-57
2022/10/07 10:06:11;;;;;;;3.47;1.05;;;;;;;17.60;48.67;99976.34;5065817;28;20055;-56
2022/10/07 10:08:39;;;;;;;3.60;1.10;;;;;;;17.20;49.21;99990.06;5068040;28;20115;-54
2022/10/07 10:11:22;;;;;;;3.67;0.90;;;;;;;16.67;50.13;99983.38;5064679;28;20131;-53
2022/10/07 10:13:51;;;;;;;3.67;0.80;;;;;;;16.42;50.88;99977.72;5060492;28;20515;-56
2022/10/07 10:16:39;;;;;;;5.05;0.98;;;;;;;16.44;51.14;99973.22;5066444;28;20534;-56
2022/10/07 10:19:26;;;;;;;7.85;1.50;;;;;;;16.36;51.56;99957.91;5066226;28;20068;-54
2022/10/07 10:21:57;;;;;;;3.63;0.95;;;;;;;16.75;50.72;99982.94;5048787;28;20151;-53
2022/10/07 10:27:29;;;;;;;4.72;0.90;;;;;;;16.85;50.90;99979.72;5065583;28;20040;-56
2022/10/07 10:30:02;;;;;;;4.03;0.98;;;;;;;16.65;50.90;99951.09;5063152;28;20426;-55
2022/10/07 10:32:50;;;;;;;2.13;0.90;;;;;;;17.00;50.94;99983.31;5052536;28;20048;-56
2022/10/07 10:35:30;;;;;;;4.53;1.00;;;;;;;16.72;51.45;99976.09;5070219;28;20125;-54
2022/10/07 10:38:02;;;;;;;6.70;1.25;;;;;;;16.76;51.60;99971.50;5070616;28;20127;-54
2022/10/07 10:40:35;;;;;;;6.78;1.30;;;;;;;16.63;51.66;99986.25;5070850;28;20052;-54
2022/10/07 10:43:40;;;;;;;8.38;2.25;;;;;;;16.50;51.85;99979.00;5069492;28;20143;-56
2022/10/07 10:46:53;;;;;;;7.32;1.20;;;;;;;17.44;50.34;99975.50;5048336;28;20084;-56
2022/10/07 10:49:36;;;;;;;3.65;0.90;;;;;;;17.31;49.98;99949.09;5041016;28;20052;-55
2022/10/07 10:52:20;;;;;;;5.32;0.82;;;;;;;17.65;49.88;99965.53;5044448;28;20618;-50
2022/10/07 10:55:12;;;;;;;4.18;1.10;;;;;;;17.79;49.29;99974.31;5084993;28;20075;-51
2022/10/07 10:57:44;;;;;;;6.05;1.00;;;;;;;17.76;49.21;99968.41;5064550;28;20072;-49
2022/10/07 11:00:21;;;;;;;3.63;0.95;;;;;;;19.10;46.74;99978.53;5085220;28;20044;-52
2022/10/07 11:02:58;;;;;;;7.30;1.38;;;;;;;19.00;46.80;99981.72;5067651;28;20047;-51
2022/10/07 11:05:35;;;;;;;4.70;1.02;;;;;;;19.39;45.19;99974.81;5069020;28;20082;-51
2022/10/07 11:08:30;;;;;;;8.52;1.05;;;;;;;18.34;47.03;99975.41;5067805;28;20032;-48
2022/10/07 11:11:08;;;;;;;2.83;1.00;;;;;;;18.52;46.95;99990.94;5027438;28;20219;-50
2022/10/07 11:13:53;;;;;;;6.38;1.20;;;;;;;17.94;48.10;100001.50;5010162;28;20052;-49
2022/10/07 11:16:35;;;;;;;4.10;0.75;;;;;;;17.44;48.23;99943.97;5026443;28;20125;-55
2022/10/07 11:19:09;;;;;;;4.05;0.90;;;;;;;17.44;49.11;99993.06;5028016;28;20041;-54
2022/10/07 11:21:37;;;;;;;4.28;0.98;;;;;;;17.57;49.24;99994.91;4992662;28;20049;-53
2022/10/07 11:24:13;;;;;;;5.40;1.30;;;;;;;16.91;50.24;99987.25;5023914;28;20095;-54
2022/10/07 11:27:24;;;;;;;4.63;1.35;;;;;;;16.51;51.57;100008.72;5039937;28;20044;-55
2022/10/07 11:29:55;;;;;;;5.30;1.20;;;;;;;16.37;51.84;99998.13;5026150;28;20041;-55
2022/10/07 11:32:40;;;;;;;6.75;1.10;;;;;;;16.32;52.48;100001.00;5030095;28;20050;-47
2022/10/07 11:35:27;;;;;;;6.00;1.48;;;;;;;16.35;52.68;99992.94;5010483;28;20057;-51
2022/10/07 11:38:09;;;;;;;3.97;0.67;;;;;;;15.87;52.67;99980.59;5026481;28;20048;-50
2022/10/07 11:40:52;;;;;;;5.60;0.95;;;;;;;15.70;53.58;100011.25;5024899;28;20069;-51
2022/10/07 11:43:38;;;;;;;4.00;0.90;;;;;;;15.51;54.17;100020.00;5040649;28;20530;-49
2022/10/07 11:46:26;;;;;;;4.15;1.00;;;;;;;15.30;54.95;100015.78;5009601;28;20643;-54
2022/10/07 11:49:01;;;;;;;5.22;1.02;;;;;;;15.20;55.38;100023.22;5094723;28;20048;-50
2022/10/07 11:51:33;;;;;;;5.85;1.10;;;;;;;15.05;55.66;100013.47;5067177;28;20113;-51
2022/10/07 11:54:01;;;;;;;5.45;1.00;;;;;;;14.78;55.47;99976.34;5052312;28;20043;-49
2022/10/07 11:56:52;;;;;;;3.88;0.88;;;;;;;14.94;56.03;100012.28;5047617;28;20087;-50
2022/10/07 11:59:37;;;;;;;4.43;1.20;;;;;;;14.90;56.19;100023.81;5066376;28;20078;-51
2022/10/07 12:02:03;;;;;;;7.07;1.33;;;;;;;14.95;56.44;100032.31;5066870;28;20071;-50